sensor_id;sensor_type;location;lat;lon;timestamp;pressure;altitude;pressure_sealevel;temperature;humidity
57094;BME280;42970;50.996;3.706;2022-10-16T00:00:28;76093.97;;;-146.65;92.07
57094;BME280;42970;50.996;3.706;2022-10-16T00:02:53;76106.09;;;-146.65;92.76
57094;BME280;42970;50.996;3.706;2022-10-16T00:05:19;76114.16;;;-146.65;93.44
57094;BME280;42970;50.996;3.706;2022-10-16T00:07:44;76130.28;;;-146.65;93.97
57094;BME280;42970;50.996;3.706;2022-10-16T00:10:09;76122.22;;;-146.65;94.10
57094;BME280;42970;50.996;3.706;2022-10-16T00:12:35;76126.25;;;-146.65;94.29
57094;BME280;42970;50.996;3.706;2022-10-16T00:15:00;76126.25;;;-146.65;94.47
57094;BME280;42970;50.996;3.706;2022-10-16T00:17:26;76130.28;;;-146.65;94.95
57094;BME280;42970;50.996;3.706;2022-10-16T00:19:51;76118.19;;;-146.65;95.22
57094;BME280;42970;50.996;3.706;2022-10-16T00:22:16;76116.19;;;-146.65;94.83
57094;BME280;42970;50.996;3.706;2022-10-16T00:24:42;76122.22;;;-146.65;95.34
57094;BME280;42970;50.996;3.706;2022-10-16T00:27:07;76122.22;;;-146.65;95.81
57094;BME280;42970;50.996;3.706;2022-10-16T00:29:32;76132.31;;;-146.65;95.96
57094;BME280;42970;50.996;3.706;2022-10-16T00:31:58;76132.31;;;-146.65;96.44
57094;BME280;42970;50.996;3.706;2022-10-16T00:34:23;76114.16;;;-146.65;96.23
57094;BME280;42970;50.996;3.706;2022-10-16T00:36:49;76126.25;;;-146.65;96.51
57094;BME280;42970;50.996;3.706;2022-10-16T00:39:14;76140.38;;;-146.65;96.82
57094;BME280;42970;50.996;3.706;2022-10-16T00:41:39;76150.47;;;-146.65;97.22
57094;BME280;42970;50.996;3.706;2022-10-16T00:47:09;76134.31;;;-146.65;97.41
57094;BME280;42970;50.996;3.706;2022-10-16T00:49:35;76142.41;;;-146.65;97.35
57094;BME280;42970;50.996;3.706;2022-10-16T00:52:00;76146.44;;;-146.65;97.71
57094;BME280;42970;50.996;3.706;2022-10-16T00:54:28;76146.44;;;-146.65;97.89
57094;BME280;42970;50.996;3.706;2022-10-16T00:56:55;76154.50;;;-146.65;98.07
57094;BME280;42970;50.996;3.706;2022-10-16T00:59:27;76158.53;;;-146.65;98.63
57094;BME280;42970;50.996;3.706;2022-10-16T01:01:54;76142.41;;;-146.65;98.22
57094;BME280;42970;50.996;3.706;2022-10-16T01:04:20;76150.47;;;-146.65;98.19
57094;BME280;42970;50.996;3.706;2022-10-16T01:12:47;76134.31;;;-146.65;97.92
57094;BME280;42970;50.996;3.706;2022-10-16T01:17:45;76148.44;;;-146.65;98.34
57094;BME280;42970;50.996;3.706;2022-10-16T01:28:12;76154.50;;;-146.65;98.34
57094;BME280;42970;50.996;3.706;2022-10-16T01:30:42;76160.56;;;-146.65;98.48
57094;BME280;42970;50.996;3.706;2022-10-16T01:33:14;76150.47;;;-146.65;98.54
57094;BME280;42970;50.996;3.706;2022-10-16T01:35:45;76150.47;;;-146.65;98.61
57094;BME280;42970;50.996;3.706;2022-10-16T01:38:22;76152.50;;;-146.65;98.46
57094;BME280;42970;50.996;3.706;2022-10-16T01:40:54;76138.38;;;-146.65;98.54
57094;BME280;42970;50.996;3.706;2022-10-16T01:43:27;76138.38;;;-146.65;98.72
57094;BME280;42970;50.996;3.706;2022-10-16T01:45:54;76144.41;;;-146.65;98.73
57094;BME280;42970;50.996;3.706;2022-10-16T01:48:21;76138.38;;;-146.65;98.63
57094;BME280;42970;50.996;3.706;2022-10-16T01:51:32;76140.38;;;-146.65;98.53
57094;BME280;42970;50.996;3.706;2022-10-16T01:53:54;76140.38;;;-146.65;98.83
57094;BME280;42970;50.996;3.706;2022-10-16T01:56:21;76148.44;;;-146.65;99.06
57094;BME280;42970;50.996;3.706;2022-10-16T01:58:55;76144.41;;;-146.65;99.08
57094;BME280;42970;50.996;3.706;2022-10-16T02:01:24;76146.44;;;-146.65;98.84
57094;BME280;42970;50.996;3.706;2022-10-16T02:03:55;76148.44;;;-146.65;99.06
57094;BME280;42970;50.996;3.706;2022-10-16T02:06:22;76146.44;;;-146.65;99.17
57094;BME280;42970;50.996;3.706;2022-10-16T02:08:48;76136.34;;;-146.65;99.14
57094;BME280;42970;50.996;3.706;2022-10-16T02:11:14;76144.41;;;-146.65;99.31
57094;BME280;42970;50.996;3.706;2022-10-16T02:13:46;76150.47;;;-146.65;99.23
57094;BME280;42970;50.996;3.706;2022-10-16T02:16:13;76146.44;;;-146.65;99.53
57094;BME280;42970;50.996;3.706;2022-10-16T02:18:40;76142.41;;;-146.65;99.38
57094;BME280;42970;50.996;3.706;2022-10-16T02:23:49;76158.53;;;-146.65;99.29
57094;BME280;42970;50.996;3.706;2022-10-16T02:26:24;76164.59;;;-146.65;99.56
57094;BME280;42970;50.996;3.706;2022-10-16T02:28:55;76168.63;;;-146.65;99.86
57094;BME280;42970;50.996;3.706;2022-10-16T02:31:26;76164.59;;;-146.65;99.59
57094;BME280;42970;50.996;3.706;2022-10-16T02:33:54;76164.59;;;-146.65;99.53
57094;BME280;42970;50.996;3.706;2022-10-16T02:36:20;76162.56;;;-146.65;99.81
57094;BME280;42970;50.996;3.706;2022-10-16T02:38:46;76174.69;;;-146.65;99.84
57094;BME280;42970;50.996;3.706;2022-10-16T02:41:12;76186.78;;;-146.65;99.69
57094;BME280;42970;50.996;3.706;2022-10-16T02:43:38;76184.75;;;-146.65;99.96
57094;BME280;42970;50.996;3.706;2022-10-16T02:46:03;76188.78;;;-146.65;99.94
57094;BME280;42970;50.996;3.706;2022-10-16T02:48:29;76186.78;;;-146.65;99.90
57094;BME280;42970;50.996;3.706;2022-10-16T02:50:54;76186.78;;;-146.65;99.69
57094;BME280;42970;50.996;3.706;2022-10-16T02:53:19;76184.75;;;-146.65;99.67
57094;BME280;42970;50.996;3.706;2022-10-16T02:55:45;76180.72;;;-146.65;99.24
57094;BME280;42970;50.996;3.706;2022-10-16T02:58:10;76190.81;;;-146.65;99.34
57094;BME280;42970;50.996;3.706;2022-10-16T03:00:35;76194.84;;;-146.65;99.64
57094;BME280;42970;50.996;3.706;2022-10-16T03:03:01;76206.97;;;-146.65;99.62
57094;BME280;42970;50.996;3.706;2022-10-16T03:05:26;76211.00;;;-146.65;99.49
57094;BME280;42970;50.996;3.706;2022-10-16T03:07:52;76215.03;;;-146.65;99.43
57094;BME280;42970;50.996;3.706;2022-10-16T03:10:17;76219.06;;;-146.65;99.31
57094;BME280;42970;50.996;3.706;2022-10-16T03:12:43;76229.16;;;-146.65;99.46
57094;BME280;42970;50.996;3.706;2022-10-16T03:15:08;76233.19;;;-146.65;99.89
57094;BME280;42970;50.996;3.706;2022-10-16T03:17:34;76243.28;;;-146.65;100.00
57094;BME280;42970;50.996;3.706;2022-10-16T03:19:59;76235.19;;;-146.65;99.61
57094;BME280;42970;50.996;3.706;2022-10-16T03:22:25;76229.16;;;-146.65;99.71
57094;BME280;42970;50.996;3.706;2022-10-16T03:24:50;76241.25;;;-146.65;100.00
57094;BME280;42970;50.996;3.706;2022-10-16T03:27:16;76237.22;;;-146.65;100.00
57094;BME280;42970;50.996;3.706;2022-10-16T03:29:41;76243.28;;;-146.65;100.00
57094;BME280;42970;50.996;3.706;2022-10-16T03:32:07;76251.34;;;-146.65;100.00
57094;BME280;42970;50.996;3.706;2022-10-16T03:34:32;76247.31;;;-146.65;100.00
57094;BME280;42970;50.996;3.706;2022-10-16T03:36:58;76249.31;;;-146.65;100.00
57094;BME280;42970;50.996;3.706;2022-10-16T03:39:23;76257.38;;;-146.65;100.00
57094;BME280;42970;50.996;3.706;2022-10-16T03:41:48;76261.44;;;-146.65;100.00
57094;BME280;42970;50.996;3.706;2022-10-16T03:44:14;76263.44;;;-146.65;99.93
57094;BME280;42970;50.996;3.706;2022-10-16T03:46:40;76247.31;;;-146.65;99.97
57094;BME280;42970;50.996;3.706;2022-10-16T03:49:05;76247.31;;;-146.65;99.57
57094;BME280;42970;50.996;3.706;2022-10-16T03:51:31;76247.31;;;-146.65;99.58
57094;BME280;42970;50.996;3.706;2022-10-16T03:53:56;76251.34;;;-146.65;100.00
57094;BME280;42970;50.996;3.706;2022-10-16T03:56:21;76255.38;;;-146.65;99.88
57094;BME280;42970;50.996;3.706;2022-10-16T03:58:47;76267.47;;;-146.65;100.00
57094;BME280;42970;50.996;3.706;2022-10-16T04:01:12;76261.44;;;-146.65;100.00
57094;BME280;42970;50.996;3.706;2022-10-16T04:03:38;76257.38;;;-146.65;100.00
57094;BME280;42970;50.996;3.706;2022-10-16T04:06:03;76269.50;;;-146.65;100.00
57094;BME280;42970;50.996;3.706;2022-10-16T04:08:28;76277.56;;;-146.65;100.00
57094;BME280;42970;50.996;3.706;2022-10-16T04:10:54;76285.63;;;-146.65;100.00
57094;BME280;42970;50.996;3.706;2022-10-16T04:13:19;76285.63;;;-146.65;100.00
57094;BME280;42970;50.996;3.706;2022-10-16T04:15:45;76281.59;;;-146.65;100.00
57094;BME280;42970;50.996;3.706;2022-10-16T04:18:11;76283.63;;;-146.65;100.00
57094;BME280;42970;50.996;3.706;2022-10-16T04:20:36;76287.66;;;-146.65;100.00
57094;BME280;42970;50.996;3.706;2022-10-16T04:23:02;76289.66;;;-146.65;100.00
57094;BME280;42970;50.996;3.706;2022-10-16T04:25:28;76291.69;;;-146.65;100.00
57094;BME280;42970;50.996;3.706;2022-10-16T04:27:54;76301.78;;;-146.65;100.00
57094;BME280;42970;50.996;3.706;2022-10-16T04:30:20;76305.81;;;-146.65;100.00
57094;BME280;42970;50.996;3.706;2022-10-16T04:32:50;76307.81;;;-146.65;100.00
57094;BME280;42970;50.996;3.706;2022-10-16T04:35:17;76323.97;;;-146.65;100.00
57094;BME280;42970;50.996;3.706;2022-10-16T04:37:43;76328.00;;;-146.65;100.00
57094;BME280;42970;50.996;3.706;2022-10-16T04:40:08;76328.00;;;-146.65;100.00
57094;BME280;42970;50.996;3.706;2022-10-16T04:42:34;76323.97;;;-146.65;100.00
57094;BME280;42970;50.996;3.706;2022-10-16T04:44:59;76334.06;;;-146.65;100.00
57094;BME280;42970;50.996;3.706;2022-10-16T04:47:25;76315.91;;;-146.65;100.00
57094;BME280;42970;50.996;3.706;2022-10-16T04:49:50;76315.91;;;-146.65;100.00
57094;BME280;42970;50.996;3.706;2022-10-16T04:52:15;76328.00;;;-146.65;100.00
57094;BME280;42970;50.996;3.706;2022-10-16T04:54:41;76328.00;;;-146.65;100.00
57094;BME280;42970;50.996;3.706;2022-10-16T04:57:06;76336.06;;;-146.65;100.00
57094;BME280;42970;50.996;3.706;2022-10-16T04:59:32;76338.09;;;-146.65;100.00
57094;BME280;42970;50.996;3.706;2022-10-16T05:01:57;76344.13;;;-146.65;100.00
57094;BME280;42970;50.996;3.706;2022-10-16T05:04:23;76352.22;;;-146.65;100.00
57094;BME280;42970;50.996;3.706;2022-10-16T05:06:49;76346.16;;;-146.65;100.00
57094;BME280;42970;50.996;3.706;2022-10-16T05:09:14;76344.13;;;-146.65;100.00
57094;BME280;42970;50.996;3.706;2022-10-16T05:11:39;76344.13;;;-146.65;100.00
57094;BME280;42970;50.996;3.706;2022-10-16T05:14:05;76328.00;;;-146.65;100.00
57094;BME280;42970;50.996;3.706;2022-10-16T05:16:30;76332.03;;;-146.65;100.00
57094;BME280;42970;50.996;3.706;2022-10-16T05:18:56;76311.84;;;-146.65;100.00
57094;BME280;42970;50.996;3.706;2022-10-16T05:21:21;76309.84;;;-146.65;100.00
57094;BME280;42970;50.996;3.706;2022-10-16T05:23:47;76307.81;;;-146.65;100.00
57094;BME280;42970;50.996;3.706;2022-10-16T05:26:12;76307.81;;;-146.65;100.00
57094;BME280;42970;50.996;3.706;2022-10-16T05:28:38;76299.75;;;-146.65;100.00
57094;BME280;42970;50.996;3.706;2022-10-16T05:31:08;76299.75;;;-146.65;99.61
57094;BME280;42970;50.996;3.706;2022-10-16T05:33:34;76295.72;;;-146.65;99.44
57094;BME280;42970;50.996;3.706;2022-10-16T05:36:03;76299.75;;;-146.65;99.32
57094;BME280;42970;50.996;3.706;2022-10-16T05:38:29;76309.84;;;-146.65;99.29
57094;BME280;42970;50.996;3.706;2022-10-16T05:40:54;76309.84;;;-146.65;99.23
57094;BME280;42970;50.996;3.706;2022-10-16T05:43:21;76313.88;;;-146.65;99.46
57094;BME280;42970;50.996;3.706;2022-10-16T05:46:05;76332.03;;;-146.65;99.76
57094;BME280;42970;50.996;3.706;2022-10-16T05:48:32;76340.09;;;-146.65;99.86
57094;BME280;42970;50.996;3.706;2022-10-16T05:50:58;76344.13;;;-146.65;100.00
57094;BME280;42970;50.996;3.706;2022-10-16T05:53:24;76354.22;;;-146.65;99.84
57094;BME280;42970;50.996;3.706;2022-10-16T05:55:57;76354.22;;;-146.65;99.62
57094;BME280;42970;50.996;3.706;2022-10-16T05:58:23;76366.34;;;-146.65;100.00
57094;BME280;42970;50.996;3.706;2022-10-16T06:00:56;76374.41;;;-146.65;100.00
57094;BME280;42970;50.996;3.706;2022-10-16T06:03:22;76378.44;;;-146.65;100.00
57094;BME280;42970;50.996;3.706;2022-10-16T06:05:48;76388.53;;;-146.65;100.00
57094;BME280;42970;50.996;3.706;2022-10-16T06:08:13;76404.66;;;-146.65;100.00
57094;BME280;42970;50.996;3.706;2022-10-16T06:10:38;76414.75;;;-146.65;100.00
57094;BME280;42970;50.996;3.706;2022-10-16T06:13:04;76414.75;;;-146.65;100.00
57094;BME280;42970;50.996;3.706;2022-10-16T06:15:29;76416.78;;;-146.65;100.00
57094;BME280;42970;50.996;3.706;2022-10-16T06:17:55;76416.78;;;-146.65;100.00
57094;BME280;42970;50.996;3.706;2022-10-16T06:20:20;76424.84;;;-146.65;100.00
57094;BME280;42970;50.996;3.706;2022-10-16T06:22:45;76422.81;;;-146.65;100.00
57094;BME280;42970;50.996;3.706;2022-10-16T06:25:11;76430.88;;;-146.65;100.00
57094;BME280;42970;50.996;3.706;2022-10-16T06:27:39;76434.94;;;-146.65;100.00
57094;BME280;42970;50.996;3.706;2022-10-16T06:30:06;76434.94;;;-146.65;100.00
57094;BME280;42970;50.996;3.706;2022-10-16T06:32:32;76434.94;;;-146.65;100.00
57094;BME280;42970;50.996;3.706;2022-10-16T06:34:58;76440.97;;;-146.65;100.00
57094;BME280;42970;50.996;3.706;2022-10-16T06:37:23;76449.03;;;-146.65;100.00
57094;BME280;42970;50.996;3.706;2022-10-16T06:39:50;76436.94;;;-146.65;100.00
57094;BME280;42970;50.996;3.706;2022-10-16T06:42:17;76428.88;;;-146.65;100.00
57094;BME280;42970;50.996;3.706;2022-10-16T06:44:43;76428.88;;;-146.65;100.00
57094;BME280;42970;50.996;3.706;2022-10-16T06:47:08;76432.91;;;-146.65;100.00
57094;BME280;42970;50.996;3.706;2022-10-16T06:49:34;76432.91;;;-146.65;100.00
57094;BME280;42970;50.996;3.706;2022-10-16T06:51:59;76445.00;;;-146.65;100.00
57094;BME280;42970;50.996;3.706;2022-10-16T06:54:26;76453.09;;;-146.65;100.00
57094;BME280;42970;50.996;3.706;2022-10-16T06:56:52;76447.03;;;-146.65;100.00
57094;BME280;42970;50.996;3.706;2022-10-16T06:59:20;76457.13;;;-146.65;100.00
57094;BME280;42970;50.996;3.706;2022-10-16T07:01:45;76445.00;;;-146.65;100.00
57094;BME280;42970;50.996;3.706;2022-10-16T07:04:11;76443.00;;;-146.65;100.00
57094;BME280;42970;50.996;3.706;2022-10-16T07:06:36;76436.94;;;-146.65;100.00
57094;BME280;42970;50.996;3.706;2022-10-16T07:09:04;76445.00;;;-146.65;100.00
57094;BME280;42970;50.996;3.706;2022-10-16T07:11:31;76436.94;;;-146.65;100.00
57094;BME280;42970;50.996;3.706;2022-10-16T07:13:57;76422.81;;;-146.65;100.00
57094;BME280;42970;50.996;3.706;2022-10-16T07:16:27;76404.66;;;-146.65;100.00
57094;BME280;42970;50.996;3.706;2022-10-16T07:18:55;76396.59;;;-146.65;100.00
57094;BME280;42970;50.996;3.706;2022-10-16T07:21:24;76398.59;;;-146.65;99.68
57094;BME280;42970;50.996;3.706;2022-10-16T07:23:57;76394.56;;;-146.65;99.56
57094;BME280;42970;50.996;3.706;2022-10-16T07:26:24;76394.56;;;-146.65;99.24
57094;BME280;42970;50.996;3.706;2022-10-16T07:28:50;76402.66;;;-146.65;98.94
57094;BME280;42970;50.996;3.706;2022-10-16T07:31:17;76410.72;;;-146.65;99.06
57094;BME280;42970;50.996;3.706;2022-10-16T07:33:44;76408.69;;;-146.65;99.06
57094;BME280;42970;50.996;3.706;2022-10-16T07:36:11;76400.63;;;-146.65;98.94
57094;BME280;42970;50.996;3.706;2022-10-16T07:38:38;76398.59;;;-146.65;98.43
57094;BME280;42970;50.996;3.706;2022-10-16T07:41:08;76396.59;;;-146.65;98.34
57094;BME280;42970;50.996;3.706;2022-10-16T07:43:34;76388.53;;;-146.65;97.48
57094;BME280;42970;50.996;3.706;2022-10-16T07:46:00;76368.34;;;-146.65;97.24
57094;BME280;42970;50.996;3.706;2022-10-16T07:48:32;76374.41;;;-146.65;97.04
57094;BME280;42970;50.996;3.706;2022-10-16T07:51:03;76368.34;;;-146.65;96.86
57094;BME280;42970;50.996;3.706;2022-10-16T07:53:28;76358.25;;;-146.65;95.90
57094;BME280;42970;50.996;3.706;2022-10-16T07:55:58;76346.16;;;-146.65;95.46
57094;BME280;42970;50.996;3.706;2022-10-16T07:58:24;76348.19;;;-146.65;95.08
57094;BME280;42970;50.996;3.706;2022-10-16T08:00:50;76340.09;;;-146.65;94.18
57094;BME280;42970;50.996;3.706;2022-10-16T08:03:16;76319.94;;;-146.65;93.54
57094;BME280;42970;50.996;3.706;2022-10-16T08:05:42;76315.91;;;-146.65;93.27
57094;BME280;42970;50.996;3.706;2022-10-16T08:08:12;76319.94;;;-146.65;93.00
57094;BME280;42970;50.996;3.706;2022-10-16T08:10:38;76305.81;;;-146.65;92.82
57094;BME280;42970;50.996;3.706;2022-10-16T08:13:03;76291.69;;;-146.65;92.58
57094;BME280;42970;50.996;3.706;2022-10-16T08:15:28;76273.53;;;-146.65;92.06
57094;BME280;42970;50.996;3.706;2022-10-16T08:17:58;76251.34;;;-146.65;90.95
57094;BME280;42970;50.996;3.706;2022-10-16T08:20:26;76235.19;;;-146.65;89.65
57094;BME280;42970;50.996;3.706;2022-10-16T08:22:51;76215.03;;;-146.65;89.48
57094;BME280;42970;50.996;3.706;2022-10-16T08:25:17;76198.88;;;-146.65;87.80
57094;BME280;42970;50.996;3.706;2022-10-16T08:27:42;76172.66;;;-146.65;86.62
57094;BME280;42970;50.996;3.706;2022-10-16T08:30:08;76148.44;;;-146.65;85.43
57094;BME280;42970;50.996;3.706;2022-10-16T08:32:34;76134.31;;;-146.65;84.92
57094;BME280;42970;50.996;3.706;2022-10-16T08:34:59;76106.09;;;-146.65;83.35
57094;BME280;42970;50.996;3.706;2022-10-16T08:37:24;76112.13;;;-146.65;83.73
57094;BME280;42970;50.996;3.706;2022-10-16T08:39:50;76130.28;;;-146.65;82.95
57094;BME280;42970;50.996;3.706;2022-10-16T08:47:45;76110.13;;;-146.65;82.65
57094;BME280;42970;50.996;3.706;2022-10-16T08:50:28;76093.97;;;-146.65;82.96
57094;BME280;42970;50.996;3.706;2022-10-16T08:52:55;76089.94;;;-146.65;82.31
57094;BME280;42970;50.996;3.706;2022-10-16T08:55:32;76059.69;;;-146.65;81.78
57094;BME280;42970;50.996;3.706;2022-10-16T08:58:00;76073.81;;;-146.65;80.45
57094;BME280;42970;50.996;3.706;2022-10-16T09:00:26;76057.66;;;-146.65;80.93
57094;BME280;42970;50.996;3.706;2022-10-16T09:03:05;76047.59;;;-146.65;79.79
57094;BME280;42970;50.996;3.706;2022-10-16T09:08:47;75995.13;;;-146.65;79.72
57094;BME280;42970;50.996;3.706;2022-10-16T09:14:37;75950.75;;;-146.65;77.87
57094;BME280;42970;50.996;3.706;2022-10-16T09:22:38;75841.81;;;-146.65;71.79
57094;BME280;42970;50.996;3.706;2022-10-16T09:25:15;75870.06;;;-146.65;71.91
57094;BME280;42970;50.996;3.706;2022-10-16T09:27:45;75819.63;;;-146.65;72.67
57094;BME280;42970;50.996;3.706;2022-10-16T09:30:17;75781.31;;;-146.65;70.88
57094;BME280;42970;50.996;3.706;2022-10-16T09:32:46;75759.13;;;-146.65;68.62
57094;BME280;42970;50.996;3.706;2022-10-16T09:35:18;75736.94;;;-146.65;67.80
57094;BME280;42970;50.996;3.706;2022-10-16T09:37:47;75714.75;;;-146.65;66.36
57094;BME280;42970;50.996;3.706;2022-10-16T09:45:39;75747.03;;;-146.65;66.42
57094;BME280;42970;50.996;3.706;2022-10-16T09:48:11;75781.31;;;-146.65;68.42
57094;BME280;42970;50.996;3.706;2022-10-16T09:50:36;75676.41;;;-146.65;66.30
57094;BME280;42970;50.996;3.706;2022-10-16T09:53:04;75632.03;;;-146.65;65.53
57094;BME280;42970;50.996;3.706;2022-10-16T09:55:30;75650.19;;;-146.65;63.24
57094;BME280;42970;50.996;3.706;2022-10-16T09:57:55;75613.88;;;-146.65;62.22
57094;BME280;42970;50.996;3.706;2022-10-16T10:00:22;75646.16;;;-146.65;61.24
57094;BME280;42970;50.996;3.706;2022-10-16T10:02:49;75615.91;;;-146.65;61.44
57094;BME280;42970;50.996;3.706;2022-10-16T10:05:41;75575.56;;;-146.65;60.87
57094;BME280;42970;50.996;3.706;2022-10-16T10:08:06;75517.06;;;-146.65;59.66
57094;BME280;42970;50.996;3.706;2022-10-16T10:10:42;75458.56;;;-146.65;59.37
57094;BME280;42970;50.996;3.706;2022-10-16T10:13:21;75432.34;;;-146.65;59.20
57094;BME280;42970;50.996;3.706;2022-10-16T10:15:47;75420.25;;;-146.65;56.71
57094;BME280;42970;50.996;3.706;2022-10-16T10:18:18;75549.34;;;-146.65;58.17
57094;BME280;42970;50.996;3.706;2022-10-16T10:20:57;75404.13;;;-146.65;55.81
57094;BME280;42970;50.996;3.706;2022-10-16T10:23:25;75555.41;;;-146.65;58.83
57094;BME280;42970;50.996;3.706;2022-10-16T10:31:37;75456.56;;;-146.65;54.73
57094;BME280;42970;50.996;3.706;2022-10-16T10:37:28;75414.19;;;-146.65;52.82
57094;BME280;42970;50.996;3.706;2022-10-16T10:43:02;75601.78;;;-146.65;58.82
57094;BME280;42970;50.996;3.706;2022-10-16T10:45:37;75460.59;;;-146.65;55.54
57094;BME280;42970;50.996;3.706;2022-10-16T10:51:08;75190.31;;;-146.65;49.20
57094;BME280;42970;50.996;3.706;2022-10-16T10:56:55;75262.94;;;-146.65;50.72
57094;BME280;42970;50.996;3.706;2022-10-16T11:02:10;75525.13;;;-146.65;54.49
57094;BME280;42970;50.996;3.706;2022-10-16T11:05:12;75597.75;;;-146.65;56.93
57094;BME280;42970;50.996;3.706;2022-10-16T11:08:03;75650.19;;;-146.65;58.96
57094;BME280;42970;50.996;3.706;2022-10-16T11:10:33;75751.06;;;-146.65;62.71
57094;BME280;42970;50.996;3.706;2022-10-16T11:13:33;75767.19;;;-146.65;62.71
57094;BME280;42970;50.996;3.706;2022-10-16T11:16:22;75531.19;;;-146.65;55.81
57094;BME280;42970;50.996;3.706;2022-10-16T11:19:02;75347.66;;;-146.65;51.66
57094;BME280;42970;50.996;3.706;2022-10-16T11:21:30;75424.28;;;-146.65;51.76
57094;BME280;42970;50.996;3.706;2022-10-16T11:24:09;75277.06;;;-146.65;48.56
57094;BME280;42970;50.996;3.706;2022-10-16T11:26:41;75154.03;;;-146.65;45.78
57094;BME280;42970;50.996;3.706;2022-10-16T11:29:15;75254.88;;;-146.65;46.67
57094;BME280;42970;50.996;3.706;2022-10-16T11:31:53;75210.50;;;-146.65;46.32
57094;BME280;42970;50.996;3.706;2022-10-16T11:34:37;75371.84;;;-146.65;49.22
57094;BME280;42970;50.996;3.706;2022-10-16T11:37:10;75222.59;;;-146.65;46.33
57094;BME280;42970;50.996;3.706;2022-10-16T11:39:38;75444.47;;;-146.65;49.25
57094;BME280;42970;50.996;3.706;2022-10-16T11:42:11;75200.41;;;-146.65;47.00
57094;BME280;42970;50.996;3.706;2022-10-16T11:45:07;75055.19;;;-146.65;42.96
57094;BME280;42970;50.996;3.706;2022-10-16T11:52:46;74918.06;;;-146.65;41.61
57094;BME280;42970;50.996;3.706;2022-10-16T11:55:20;75162.09;;;-146.65;44.49
57094;BME280;42970;50.996;3.706;2022-10-16T11:58:01;75061.25;;;-146.65;42.84
57094;BME280;42970;50.996;3.706;2022-10-16T12:00:40;74831.34;;;-146.65;41.12
57094;BME280;42970;50.996;3.706;2022-10-16T12:03:17;74857.56;;;-146.65;38.53
57094;BME280;42970;50.996;3.706;2022-10-16T12:08:19;75428.31;;;-146.65;48.60
57094;BME280;42970;50.996;3.706;2022-10-16T12:10:47;75414.19;;;-146.65;47.99
57094;BME280;42970;50.996;3.706;2022-10-16T12:13:34;75254.88;;;-146.65;46.79
57094;BME280;42970;50.996;3.706;2022-10-16T12:16:25;75006.78;;;-146.65;42.09
57094;BME280;42970;50.996;3.706;2022-10-16T12:19:03;74851.50;;;-146.65;41.17
57094;BME280;42970;50.996;3.706;2022-10-16T12:21:35;74770.84;;;-146.65;38.17
57094;BME280;42970;50.996;3.706;2022-10-16T12:24:02;74903.94;;;-146.65;39.69
57094;BME280;42970;50.996;3.706;2022-10-16T12:26:32;75228.66;;;-146.65;43.24
57094;BME280;42970;50.996;3.706;2022-10-16T12:31:56;75004.78;;;-146.65;41.22
57094;BME280;42970;50.996;3.706;2022-10-16T12:34:39;75006.78;;;-146.65;41.00
57094;BME280;42970;50.996;3.706;2022-10-16T12:39:38;75206.47;;;-146.65;43.93
57094;BME280;42970;50.996;3.706;2022-10-16T12:42:19;75141.91;;;-146.65;43.30
57094;BME280;42970;50.996;3.706;2022-10-16T12:44:45;75010.81;;;-146.65;41.41
57094;BME280;42970;50.996;3.706;2022-10-16T12:47:36;75339.56;;;-146.65;46.33
57094;BME280;42970;50.996;3.706;2022-10-16T12:50:03;75458.56;;;-146.65;48.69
57094;BME280;42970;50.996;3.706;2022-10-16T12:52:36;75553.38;;;-146.65;52.67
57094;BME280;42970;50.996;3.706;2022-10-16T12:55:03;75575.56;;;-146.65;54.02
57094;BME280;42970;50.996;3.706;2022-10-16T12:58:09;75563.47;;;-146.65;52.39
57094;BME280;42970;50.996;3.706;2022-10-16T13:00:57;75591.69;;;-146.65;55.01
57094;BME280;42970;50.996;3.706;2022-10-16T13:06:40;75658.25;;;-146.65;55.18
57094;BME280;42970;50.996;3.706;2022-10-16T13:17:09;75742.97;;;-146.65;59.06
57094;BME280;42970;50.996;3.706;2022-10-16T13:22:29;75688.53;;;-146.65;57.71
57094;BME280;42970;50.996;3.706;2022-10-16T13:30:19;75680.44;;;-146.65;57.43
57094;BME280;42970;50.996;3.706;2022-10-16T13:32:49;75694.56;;;-146.65;58.46
57094;BME280;42970;50.996;3.706;2022-10-16T13:35:25;75646.16;;;-146.65;57.94
57094;BME280;42970;50.996;3.706;2022-10-16T13:37:50;75632.03;;;-146.65;57.33
57094;BME280;42970;50.996;3.706;2022-10-16T13:40:20;75678.44;;;-146.65;57.55
57094;BME280;42970;50.996;3.706;2022-10-16T13:42:46;75670.38;;;-146.65;59.07
57094;BME280;42970;50.996;3.706;2022-10-16T13:45:23;75698.59;;;-146.65;59.99
57094;BME280;42970;50.996;3.706;2022-10-16T13:48:01;75734.91;;;-146.65;62.20
57094;BME280;42970;50.996;3.706;2022-10-16T13:50:27;75732.91;;;-146.65;60.93
57094;BME280;42970;50.996;3.706;2022-10-16T13:53:06;75738.94;;;-146.65;61.63
57094;BME280;42970;50.996;3.706;2022-10-16T13:55:32;75736.94;;;-146.65;62.40
57094;BME280;42970;50.996;3.706;2022-10-16T13:58:14;75765.16;;;-146.65;63.28
57094;BME280;42970;50.996;3.706;2022-10-16T14:00:42;75757.09;;;-146.65;63.75
57094;BME280;42970;50.996;3.706;2022-10-16T14:03:19;75751.06;;;-146.65;64.08
57094;BME280;42970;50.996;3.706;2022-10-16T14:05:50;75738.94;;;-146.65;63.17
57094;BME280;42970;50.996;3.706;2022-10-16T14:08:16;75736.94;;;-146.65;63.36
57094;BME280;42970;50.996;3.706;2022-10-16T14:10:42;75730.88;;;-146.65;62.49
57094;BME280;42970;50.996;3.706;2022-10-16T14:13:12;75751.06;;;-146.65;62.48
57094;BME280;42970;50.996;3.706;2022-10-16T14:15:39;75763.16;;;-146.65;64.05
57094;BME280;42970;50.996;3.706;2022-10-16T14:18:05;75759.13;;;-146.65;64.03
57094;BME280;42970;50.996;3.706;2022-10-16T14:20:32;75783.31;;;-146.65;62.30
57094;BME280;42970;50.996;3.706;2022-10-16T14:25:30;75803.50;;;-146.65;63.14
57094;BME280;42970;50.996;3.706;2022-10-16T14:30:25;75793.41;;;-146.65;62.39